Boardwalk Fantasea — WDG5661 — position and weather

sailwx.info

Track history (hours):
 
Tides and Currents Weather Stations Pressure Air Temp Water Temp Dewpoint Dewpoint Depression Visibility Wind Speed Wind Dir Waves Ship Positions

Boardwalk Fantasea

Owner: Landry's Inc., Kemah, TX. More information available from US FCC via Universal Licensing System and Coast Guard Vessel Documentation Center.

Last reported at 2018-Feb-08 01:30 UTC. Time now 2018-Feb-23 20:40 UTC.
Position N 29°33' W 095°03'.
Warning: this ship's position is 15 days out of date.

Length 40 m.

Type: Passenger vessel. MMSI: 367548930.

Date/timePositionNaut miles runAvg speedWind from/ knotsBaromVisibWave heightAir tempDewpointWater temp
2018-Feb-08 01:30N 29°33' W 095°03'1 2.1
2018-Feb-08 01:01N 29°33' W 095°04'1 1.9
2018-Feb-08 00:31N 29°33' W 095°03'2 3.3
2018-Feb-07 23:59N 29°33' W 095°01'2 3.4
2018-Feb-07 23:30N 29°33' W 095°03'1 2.0
2018-Feb-07 23:01N 29°33' W 095°04'0 0.1
2018-Feb-07 22:31N 29°33' W 095°04'2 4.3
2018-Feb-07 22:00N 29°33' W 095°02'0 0.6
2018-Feb-07 21:29N 29°33' W 095°01'0 0.0
2018-Feb-07 09:29N 29°33' W 095°01'0 0.0
2018-Feb-07 08:59N 29°33' W 095°01'0 0.0
2018-Feb-07 08:29N 29°33' W 095°01'0 0.0
2018-Feb-07 07:56N 29°33' W 095°01'0 0.0
2018-Feb-07 06:59N 29°33' W 095°01'0 0.0
2018-Feb-07 03:02N 29°33' W 095°01'0 0.1
2018-Feb-07 02:59N 29°33' W 095°01'0 0.0
2018-Feb-07 01:23N 29°33' W 095°01'0 0.0
2018-Feb-07 00:59N 29°33' W 095°01'0 0.0
2018-Feb-07 00:11N 29°33' W 095°01'0 0.0
2018-Feb-06 23:53N 29°33' W 095°01'0 0.0
2018-Feb-06 23:29N 29°33' W 095°01'0 0.0
2018-Feb-06 22:59N 29°33' W 095°01'0 0.0
2018-Feb-06 22:29N 29°33' W 095°01'0 0.0
2018-Feb-06 21:59N 29°33' W 095°01'0 0.0
2018-Feb-06 21:29N 29°33' W 095°01'0 0.0
2018-Feb-06 20:59N 29°33' W 095°01'0 0.0
2018-Feb-06 20:26N 29°33' W 095°01'0 0.0
2018-Feb-06 19:59N 29°33' W 095°01'0 0.0
2018-Feb-06 19:30N 29°33' W 095°01'6 5.5
2018-Feb-06 18:21N 29°32' W 094°54'3 7.0
2018-Feb-06 17:58N 29°30' W 094°52'2 4.4
2018-Feb-06 17:29N 29°28' W 094°53'3 5.5
2018-Feb-06 16:59N 29°28' W 094°56'2 3.8
2018-Feb-06 16:30N 29°28' W 094°58'  
2018-Jan-31 23:31N 29°28' W 094°58'0 0.0
2018-Jan-31 23:00N 29°28' W 094°58'0 0.0
2018-Jan-31 22:29N 29°28' W 094°58'0 0.0
2018-Jan-31 20:57N 29°28' W 094°58'0 0.0
2018-Jan-31 20:25N 29°28' W 094°58'0 0.0
2018-Jan-31 19:57N 29°28' W 094°58'0 0.0
2018-Jan-31 19:30N 29°28' W 094°58'0 0.0
2018-Jan-31 18:59N 29°28' W 094°58'0 0.0
2018-Jan-31 18:30N 29°28' W 094°58'0 0.0
2018-Jan-31 18:00N 29°28' W 094°58'0 0.0
2018-Jan-31 17:30N 29°28' W 094°58'0 0.0
2018-Jan-31 17:00N 29°28' W 094°58'0 0.0
2018-Jan-31 16:30N 29°28' W 094°58'0 0.0
2018-Jan-31 15:59N 29°28' W 094°58'0 0.0
2018-Jan-31 15:30N 29°28' W 094°58'0 0.0
2018-Jan-31 15:00N 29°28' W 094°58'0 0.0
2018-Jan-31 14:30N 29°28' W 094°58'0 0.0
2018-Jan-31 13:00N 29°28' W 094°58'0 0.0
2018-Jan-31 12:30N 29°28' W 094°58'0 0.0
2018-Jan-31 12:00N 29°28' W 094°58'0 0.0
2018-Jan-31 11:30N 29°28' W 094°58'0 0.0
2018-Jan-31 10:59N 29°28' W 094°58'0 0.0
2018-Jan-31 10:30N 29°28' W 094°58'0 0.0
2018-Jan-31 10:00N 29°28' W 094°58'0 0.0
2018-Jan-31 09:30N 29°28' W 094°58'0 0.0
2018-Jan-31 09:00N 29°28' W 094°58'0 0.0
2018-Jan-31 08:30N 29°28' W 094°58'0 0.0
2018-Jan-31 08:00N 29°28' W 094°58'0 0.0
2018-Jan-31 07:30N 29°28' W 094°58'0 0.0
2018-Jan-31 07:00N 29°28' W 094°58'0 0.0
2018-Jan-31 06:30N 29°28' W 094°58'0 0.0
2018-Jan-31 06:00N 29°28' W 094°58'0 0.0
2018-Jan-31 05:30N 29°28' W 094°58'0 0.0
2018-Jan-31 05:00N 29°28' W 094°58'0 0.0
2018-Jan-31 04:30N 29°28' W 094°58'0 0.0
2018-Jan-31 04:00N 29°28' W 094°58'0 0.0
2018-Jan-31 03:30N 29°28' W 094°58'0 0.0
2018-Jan-31 03:00N 29°28' W 094°58'0 0.0
2018-Jan-31 02:30N 29°28' W 094°58'0 0.0
2018-Jan-31 02:00N 29°28' W 094°58'0 0.0
2018-Jan-31 01:30N 29°28' W 094°58'0 0.0
2018-Jan-31 01:00N 29°28' W 094°58'0 0.0
2018-Jan-31 00:00N 29°28' W 094°58'0 0.0
2018-Jan-30 23:30N 29°28' W 094°58'0 0.0
2018-Jan-30 23:00N 29°28' W 094°58'0 0.0
2018-Jan-30 22:30N 29°28' W 094°58'0 0.0
2018-Jan-30 21:30N 29°28' W 094°58'0 0.0
2018-Jan-30 21:00N 29°28' W 094°58'0 0.0
2018-Jan-30 20:30N 29°28' W 094°58'0 0.0
2018-Jan-30 20:00N 29°28' W 094°58'0 0.0
2018-Jan-30 19:29N 29°28' W 094°58'0 0.0
2018-Jan-30 19:00N 29°28' W 094°58'0 0.0
2018-Jan-30 18:30N 29°28' W 094°58'0 0.0
2018-Jan-30 17:59N 29°28' W 094°58'0 0.0
2018-Jan-30 17:29N 29°28' W 094°58'0 0.0
2018-Jan-30 16:59N 29°28' W 094°58'0 0.0
2018-Jan-30 16:29N 29°28' W 094°58'0 0.0
2018-Jan-30 16:00N 29°28' W 094°58'0 0.0
2018-Jan-30 15:30N 29°28' W 094°58'0 0.0
2018-Jan-30 15:00N 29°28' W 094°58'0 0.0
2018-Jan-30 14:30N 29°28' W 094°58'0 0.0
2018-Jan-30 13:30N 29°28' W 094°58'0 0.0
2018-Jan-30 13:00N 29°28' W 094°58'0 0.0
2018-Jan-30 12:30N 29°28' W 094°58'0 0.0
2018-Jan-30 11:57N 29°28' W 094°58'0 0.0
2018-Jan-30 11:29N 29°28' W 094°58'0 0.0
2018-Jan-30 10:30N 29°28' W 094°58'0 0.0
2018-Jan-30 09:29N 29°28' W 094°58'0 0.0
2018-Jan-30 09:00N 29°28' W 094°58'0 0.0
2018-Jan-30 08:30N 29°28' W 094°58'0 0.0
2018-Jan-30 08:00N 29°28' W 094°58'0 0.0
2018-Jan-30 07:30N 29°28' W 094°58'0 0.0
2018-Jan-30 07:00N 29°28' W 094°58'0 0.0
2018-Jan-30 06:30N 29°28' W 094°58'0 0.0
2018-Jan-30 06:00N 29°28' W 094°58'0 0.0
2018-Jan-30 05:29N 29°28' W 094°58'0 0.0
2018-Jan-30 05:00N 29°28' W 094°58'0 0.0
2018-Jan-30 04:29N 29°28' W 094°58'0 0.0
2018-Jan-30 04:00N 29°28' W 094°58'0 0.0
2018-Jan-30 03:30N 29°28' W 094°58'0 0.0
2018-Jan-30 03:00N 29°28' W 094°58'0 0.0
2018-Jan-30 02:30N 29°28' W 094°58'0 0.0
2018-Jan-30 02:00N 29°28' W 094°58'0 0.0
2018-Jan-30 01:30N 29°28' W 094°58'0 0.0
2018-Jan-30 01:00N 29°28' W 094°58'0 0.0
2018-Jan-30 00:30N 29°28' W 094°58'0 0.0
2018-Jan-30 00:00N 29°28' W 094°58'0 0.0
2018-Jan-29 23:29N 29°28' W 094°58'0 0.0
2018-Jan-29 22:59N 29°28' W 094°58'0 0.0
2018-Jan-29 22:30N 29°28' W 094°58'0 0.0
2018-Jan-29 22:00N 29°28' W 094°58'0 0.0
2018-Jan-29 21:29N 29°28' W 094°58'0 0.0
2018-Jan-29 21:00N 29°28' W 094°58'0 0.0
2018-Jan-29 20:29N 29°28' W 094°58'0 0.0
2018-Jan-29 19:53N 29°28' W 094°58'0 0.0
2018-Jan-29 19:26N 29°28' W 094°58'0 0.0
2018-Jan-29 18:56N 29°28' W 094°58'0 0.0
2018-Jan-29 18:03N 29°28' W 094°58'0 0.0
2018-Jan-29 17:54N 29°28' W 094°58'0 0.0
2018-Jan-29 17:30N 29°28' W 094°58'0 0.0
2018-Jan-29 16:58N 29°28' W 094°58'0 0.0
2018-Jan-29 16:29N 29°28' W 094°58'5 3.9
2018-Jan-29 15:09N 29°32' W 094°54'1 8.3
2018-Jan-29 15:00N 29°32' W 094°55'5 8.8
2018-Jan-29 14:29N 29°33' W 095°00'1 1.7
2018-Jan-29 14:00N 29°33' W 095°01'0 0.0
2018-Jan-29 13:30N 29°33' W 095°01'0 0.0
2018-Jan-29 13:00N 29°33' W 095°01'0 0.0
2018-Jan-29 12:30N 29°33' W 095°01'0 0.0
2018-Jan-29 12:00N 29°33' W 095°01'0 0.0
2018-Jan-29 11:30N 29°33' W 095°01'0 0.0
2018-Jan-29 11:00N 29°33' W 095°01'0 0.0
2018-Jan-29 10:30N 29°33' W 095°01'0 0.0
2018-Jan-29 10:00N 29°33' W 095°01'0 0.0
2018-Jan-29 09:30N 29°33' W 095°01'0 0.0
2018-Jan-29 09:00N 29°33' W 095°01'0 0.0
2018-Jan-29 08:30N 29°33' W 095°01'0 0.0
2018-Jan-29 08:00N 29°33' W 095°01'0 0.0
2018-Jan-29 07:30N 29°33' W 095°01'0 0.0
2018-Jan-29 07:00N 29°33' W 095°01'0 0.0
2018-Jan-29 06:30N 29°33' W 095°01'0 0.0
2018-Jan-29 06:00N 29°33' W 095°01'0 0.0
2018-Jan-29 05:30N 29°33' W 095°01'0 0.0
2018-Jan-29 05:00N 29°33' W 095°01'0 0.0
2018-Jan-29 04:30N 29°33' W 095°01'0 0.0
2018-Jan-29 04:00N 29°33' W 095°01'2 3.5
2018-Jan-29 03:30N 29°34' W 095°03'0 0.5
2018-Jan-29 03:00N 29°33' W 095°03'1 2.2
2018-Jan-29 02:30N 29°33' W 095°04'2 4.6
2018-Jan-29 02:00N 29°33' W 095°02'  
Track history (hours):
 
Tides and Currents Weather Stations Pressure Air Temp Water Temp Dewpoint Dewpoint Depression Visibility Wind Speed Wind Dir Waves Ship Positions

Boardwalk Fantasea

Owner: Landry's Inc., Kemah, TX. More information available from US FCC via Universal Licensing System and Coast Guard Vessel Documentation Center.

Last reported at 2018-Feb-08 01:30 UTC. Time now 2018-Feb-23 20:40 UTC.
Position N 29°33' W 095°03'.
Warning: this ship's position is 15 days out of date.

Length 40 m.

Type: Passenger vessel. MMSI: 367548930.

Date/timePositionNaut miles runAvg speedWind from/ knotsBaromVisibWave heightAir tempDewpointWater temp
2018-Feb-08 01:30N 29°33' W 095°03'1 2.1
2018-Feb-08 01:01N 29°33' W 095°04'1 1.9
2018-Feb-08 00:31N 29°33' W 095°03'2 3.3
2018-Feb-07 23:59N 29°33' W 095°01'2 3.4
2018-Feb-07 23:30N 29°33' W 095°03'1 2.0
2018-Feb-07 23:01N 29°33' W 095°04'0 0.1
2018-Feb-07 22:31N 29°33' W 095°04'2 4.3
2018-Feb-07 22:00N 29°33' W 095°02'0 0.6
2018-Feb-07 21:29N 29°33' W 095°01'0 0.0
2018-Feb-07 09:29N 29°33' W 095°01'0 0.0
2018-Feb-07 08:59N 29°33' W 095°01'0 0.0
2018-Feb-07 08:29N 29°33' W 095°01'0 0.0
2018-Feb-07 07:56N 29°33' W 095°01'0 0.0
2018-Feb-07 06:59N 29°33' W 095°01'0 0.0
2018-Feb-07 03:02N 29°33' W 095°01'0 0.1
2018-Feb-07 02:59N 29°33' W 095°01'0 0.0
2018-Feb-07 01:23N 29°33' W 095°01'0 0.0
2018-Feb-07 00:59N 29°33' W 095°01'0 0.0
2018-Feb-07 00:11N 29°33' W 095°01'0 0.0
2018-Feb-06 23:53N 29°33' W 095°01'0 0.0
2018-Feb-06 23:29N 29°33' W 095°01'0 0.0
2018-Feb-06 22:59N 29°33' W 095°01'0 0.0
2018-Feb-06 22:29N 29°33' W 095°01'0 0.0
2018-Feb-06 21:59N 29°33' W 095°01'0 0.0
2018-Feb-06 21:29N 29°33' W 095°01'0 0.0
2018-Feb-06 20:59N 29°33' W 095°01'0 0.0
2018-Feb-06 20:26N 29°33' W 095°01'0 0.0
2018-Feb-06 19:59N 29°33' W 095°01'0 0.0
2018-Feb-06 19:30N 29°33' W 095°01'6 5.5
2018-Feb-06 18:21N 29°32' W 094°54'3 7.0
2018-Feb-06 17:58N 29°30' W 094°52'2 4.4
2018-Feb-06 17:29N 29°28' W 094°53'3 5.5
2018-Feb-06 16:59N 29°28' W 094°56'2 3.8
2018-Feb-06 16:30N 29°28' W 094°58'  
2018-Jan-31 23:31N 29°28' W 094°58'0 0.0
2018-Jan-31 23:00N 29°28' W 094°58'0 0.0
2018-Jan-31 22:29N 29°28' W 094°58'0 0.0
2018-Jan-31 20:57N 29°28' W 094°58'0 0.0
2018-Jan-31 20:25N 29°28' W 094°58'0 0.0
2018-Jan-31 19:57N 29°28' W 094°58'0 0.0
2018-Jan-31 19:30N 29°28' W 094°58'0 0.0
2018-Jan-31 18:59N 29°28' W 094°58'0 0.0
2018-Jan-31 18:30N 29°28' W 094°58'0 0.0
2018-Jan-31 18:00N 29°28' W 094°58'0 0.0
2018-Jan-31 17:30N 29°28' W 094°58'0 0.0
2018-Jan-31 17:00N 29°28' W 094°58'0 0.0
2018-Jan-31 16:30N 29°28' W 094°58'0 0.0
2018-Jan-31 15:59N 29°28' W 094°58'0 0.0
2018-Jan-31 15:30N 29°28' W 094°58'0 0.0
2018-Jan-31 15:00N 29°28' W 094°58'0 0.0
2018-Jan-31 14:30N 29°28' W 094°58'0 0.0
2018-Jan-31 13:00N 29°28' W 094°58'0 0.0
2018-Jan-31 12:30N 29°28' W 094°58'0 0.0
2018-Jan-31 12:00N 29°28' W 094°58'0 0.0
2018-Jan-31 11:30N 29°28' W 094°58'0 0.0
2018-Jan-31 10:59N 29°28' W 094°58'0 0.0
2018-Jan-31 10:30N 29°28' W 094°58'0 0.0
2018-Jan-31 10:00N 29°28' W 094°58'0 0.0
2018-Jan-31 09:30N 29°28' W 094°58'0 0.0
2018-Jan-31 09:00N 29°28' W 094°58'0 0.0
2018-Jan-31 08:30N 29°28' W 094°58'0 0.0
2018-Jan-31 08:00N 29°28' W 094°58'0 0.0
2018-Jan-31 07:30N 29°28' W 094°58'0 0.0
2018-Jan-31 07:00N 29°28' W 094°58'0 0.0
2018-Jan-31 06:30N 29°28' W 094°58'0 0.0
2018-Jan-31 06:00N 29°28' W 094°58'0 0.0
2018-Jan-31 05:30N 29°28' W 094°58'0 0.0
2018-Jan-31 05:00N 29°28' W 094°58'0 0.0
2018-Jan-31 04:30N 29°28' W 094°58'0 0.0
2018-Jan-31 04:00N 29°28' W 094°58'0 0.0
2018-Jan-31 03:30N 29°28' W 094°58'0 0.0
2018-Jan-31 03:00N 29°28' W 094°58'0 0.0
2018-Jan-31 02:30N 29°28' W 094°58'0 0.0
2018-Jan-31 02:00N 29°28' W 094°58'0 0.0
2018-Jan-31 01:30N 29°28' W 094°58'0 0.0
2018-Jan-31 01:00N 29°28' W 094°58'0 0.0
2018-Jan-31 00:00N 29°28' W 094°58'0 0.0
2018-Jan-30 23:30N 29°28' W 094°58'0 0.0
2018-Jan-30 23:00N 29°28' W 094°58'0 0.0
2018-Jan-30 22:30N 29°28' W 094°58'0 0.0
2018-Jan-30 21:30N 29°28' W 094°58'0 0.0
2018-Jan-30 21:00N 29°28' W 094°58'0 0.0
2018-Jan-30 20:30N 29°28' W 094°58'0 0.0
2018-Jan-30 20:00N 29°28' W 094°58'0 0.0
2018-Jan-30 19:29N 29°28' W 094°58'0 0.0
2018-Jan-30 19:00N 29°28' W 094°58'0 0.0
2018-Jan-30 18:30N 29°28' W 094°58'0 0.0
2018-Jan-30 17:59N 29°28' W 094°58'0 0.0
2018-Jan-30 17:29N 29°28' W 094°58'0 0.0
2018-Jan-30 16:59N 29°28' W 094°58'0 0.0
2018-Jan-30 16:29N 29°28' W 094°58'0 0.0
2018-Jan-30 16:00N 29°28' W 094°58'0 0.0
2018-Jan-30 15:30N 29°28' W 094°58'0 0.0
2018-Jan-30 15:00N 29°28' W 094°58'0 0.0
2018-Jan-30 14:30N 29°28' W 094°58'0 0.0
2018-Jan-30 13:30N 29°28' W 094°58'0 0.0
2018-Jan-30 13:00N 29°28' W 094°58'0 0.0
2018-Jan-30 12:30N 29°28' W 094°58'0 0.0
2018-Jan-30 11:57N 29°28' W 094°58'0 0.0
2018-Jan-30 11:29N 29°28' W 094°58'0 0.0
2018-Jan-30 10:30N 29°28' W 094°58'0 0.0
2018-Jan-30 09:29N 29°28' W 094°58'0 0.0
2018-Jan-30 09:00N 29°28' W 094°58'0 0.0
2018-Jan-30 08:30N 29°28' W 094°58'0 0.0
2018-Jan-30 08:00N 29°28' W 094°58'0 0.0
2018-Jan-30 07:30N 29°28' W 094°58'0 0.0
2018-Jan-30 07:00N 29°28' W 094°58'0 0.0
2018-Jan-30 06:30N 29°28' W 094°58'0 0.0
2018-Jan-30 06:00N 29°28' W 094°58'0 0.0
2018-Jan-30 05:29N 29°28' W 094°58'0 0.0
2018-Jan-30 05:00N 29°28' W 094°58'0 0.0
2018-Jan-30 04:29N 29°28' W 094°58'0 0.0
2018-Jan-30 04:00N 29°28' W 094°58'0 0.0
2018-Jan-30 03:30N 29°28' W 094°58'0 0.0
2018-Jan-30 03:00N 29°28' W 094°58'0 0.0
2018-Jan-30 02:30N 29°28' W 094°58'0 0.0
2018-Jan-30 02:00N 29°28' W 094°58'0 0.0
2018-Jan-30 01:30N 29°28' W 094°58'0 0.0
2018-Jan-30 01:00N 29°28' W 094°58'0 0.0
2018-Jan-30 00:30N 29°28' W 094°58'0 0.0
2018-Jan-30 00:00N 29°28' W 094°58'0 0.0
2018-Jan-29 23:29N 29°28' W 094°58'0 0.0
2018-Jan-29 22:59N 29°28' W 094°58'0 0.0
2018-Jan-29 22:30N 29°28' W 094°58'0 0.0
2018-Jan-29 22:00N 29°28' W 094°58'0 0.0
2018-Jan-29 21:29N 29°28' W 094°58'0 0.0
2018-Jan-29 21:00N 29°28' W 094°58'0 0.0
2018-Jan-29 20:29N 29°28' W 094°58'0 0.0
2018-Jan-29 19:53N 29°28' W 094°58'0 0.0
2018-Jan-29 19:26N 29°28' W 094°58'0 0.0
2018-Jan-29 18:56N 29°28' W 094°58'0 0.0
2018-Jan-29 18:03N 29°28' W 094°58'0 0.0
2018-Jan-29 17:54N 29°28' W 094°58'0 0.0
2018-Jan-29 17:30N 29°28' W 094°58'0 0.0
2018-Jan-29 16:58N 29°28' W 094°58'0 0.0
2018-Jan-29 16:29N 29°28' W 094°58'5 3.9
2018-Jan-29 15:09N 29°32' W 094°54'1 8.3
2018-Jan-29 15:00N 29°32' W 094°55'5 8.8
2018-Jan-29 14:29N 29°33' W 095°00'1 1.7
2018-Jan-29 14:00N 29°33' W 095°01'0 0.0
2018-Jan-29 13:30N 29°33' W 095°01'0 0.0
2018-Jan-29 13:00N 29°33' W 095°01'0 0.0
2018-Jan-29 12:30N 29°33' W 095°01'0 0.0
2018-Jan-29 12:00N 29°33' W 095°01'0 0.0
2018-Jan-29 11:30N 29°33' W 095°01'0 0.0
2018-Jan-29 11:00N 29°33' W 095°01'0 0.0
2018-Jan-29 10:30N 29°33' W 095°01'0 0.0
2018-Jan-29 10:00N 29°33' W 095°01'0 0.0
2018-Jan-29 09:30N 29°33' W 095°01'0 0.0
2018-Jan-29 09:00N 29°33' W 095°01'0 0.0
2018-Jan-29 08:30N 29°33' W 095°01'0 0.0
2018-Jan-29 08:00N 29°33' W 095°01'0 0.0
2018-Jan-29 07:30N 29°33' W 095°01'0 0.0
2018-Jan-29 07:00N 29°33' W 095°01'0 0.0
2018-Jan-29 06:30N 29°33' W 095°01'0 0.0
2018-Jan-29 06:00N 29°33' W 095°01'0 0.0
2018-Jan-29 05:30N 29°33' W 095°01'0 0.0
2018-Jan-29 05:00N 29°33' W 095°01'0 0.0
2018-Jan-29 04:30N 29°33' W 095°01'0 0.0
2018-Jan-29 04:00N 29°33' W 095°01'2 3.5
2018-Jan-29 03:30N 29°34' W 095°03'0 0.5
2018-Jan-29 03:00N 29°33' W 095°03'1 2.2
2018-Jan-29 02:30N 29°33' W 095°04'2 4.6
2018-Jan-29 02:00N 29°33' W 095°02'  

Dump ship's entire track history